createdAt,value
2017-05-11T00:00:06.466Z,0
2017-05-11T00:00:38.755Z,0
2017-05-11T00:01:11.063Z,0
2017-05-11T00:01:43.343Z,0
2017-05-11T00:02:15.650Z,0
2017-05-11T00:02:47.937Z,0
2017-05-11T00:03:20.232Z,0
2017-05-11T00:03:52.528Z,0
2017-05-11T00:04:24.832Z,0
2017-05-11T00:04:57.127Z,0
2017-05-11T00:05:29.421Z,0
2017-05-11T00:06:01.717Z,0
2017-05-11T00:06:33.991Z,0
2017-05-11T00:07:06.272Z,0
2017-05-11T00:07:38.573Z,0
2017-05-11T00:08:10.849Z,0
2017-05-11T00:08:43.131Z,0
2017-05-11T00:09:15.425Z,0
2017-05-11T00:09:47.710Z,0
2017-05-11T00:10:20.013Z,0
2017-05-11T00:10:52.294Z,0
2017-05-11T00:11:24.587Z,0
2017-05-11T00:11:56.885Z,0
2017-05-11T00:12:29.181Z,0
2017-05-11T00:13:01.478Z,0
2017-05-11T00:13:33.766Z,0
2017-05-11T00:14:06.059Z,0
2017-05-11T00:14:38.341Z,0
2017-05-11T00:15:10.632Z,0
2017-05-11T00:15:42.918Z,0
2017-05-11T00:16:15.218Z,0
2017-05-11T00:16:47.498Z,0
2017-05-11T00:17:19.791Z,0
2017-05-11T00:17:52.085Z,0
2017-05-11T00:18:24.397Z,0
2017-05-11T00:18:56.694Z,0
2017-05-11T00:19:28.984Z,0
2017-05-11T00:20:01.274Z,0
2017-05-11T00:20:33.563Z,0
2017-05-11T00:21:05.865Z,0
2017-05-11T00:21:38.165Z,0
2017-05-11T00:22:10.455Z,0
2017-05-11T00:22:42.714Z,0
2017-05-11T00:23:14.971Z,0
2017-05-11T00:23:47.257Z,0
2017-05-11T00:24:19.519Z,0
2017-05-11T00:24:51.763Z,0
2017-05-11T00:25:24.040Z,0
2017-05-11T00:25:56.278Z,0
2017-05-11T00:26:28.539Z,0
2017-05-11T00:27:00.799Z,0
2017-05-11T00:27:33.081Z,0
2017-05-11T00:28:05.334Z,0
2017-05-11T00:28:37.581Z,0
2017-05-11T00:29:09.830Z,0
2017-05-11T00:29:42.234Z,0
2017-05-11T00:30:14.470Z,0
2017-05-11T00:30:46.740Z,0
2017-05-11T00:31:20.244Z,0
2017-05-11T00:31:52.496Z,0
2017-05-11T00:32:24.781Z,0
2017-05-11T00:32:57.026Z,0
2017-05-11T00:33:29.280Z,0
2017-05-11T00:34:02.224Z,0
2017-05-11T00:34:34.495Z,0
2017-05-11T00:35:06.775Z,0
2017-05-11T00:35:39.074Z,0
2017-05-11T00:36:12.250Z,0
2017-05-11T00:36:44.504Z,0
2017-05-11T00:37:16.750Z,0
2017-05-11T00:37:49.011Z,0
2017-05-11T00:38:21.259Z,0
2017-05-11T00:38:53.512Z,0
2017-05-11T00:39:25.758Z,0
2017-05-11T00:39:58.025Z,0
2017-05-11T00:40:30.316Z,0
2017-05-11T00:41:02.566Z,0
2017-05-11T00:41:34.824Z,0
2017-05-11T00:42:07.058Z,0
2017-05-11T00:42:39.343Z,0
2017-05-11T00:43:11.638Z,0
2017-05-11T00:43:43.949Z,0
2017-05-11T00:44:16.243Z,0
2017-05-11T00:44:48.518Z,0
2017-05-11T00:45:20.804Z,0
2017-05-11T00:45:53.098Z,0
2017-05-11T00:46:25.397Z,0
2017-05-11T00:46:57.691Z,0
2017-05-11T00:47:29.984Z,0
2017-05-11T00:48:02.283Z,0
2017-05-11T00:48:34.564Z,0
2017-05-11T00:49:06.866Z,0
2017-05-11T00:49:39.158Z,0
2017-05-11T00:50:11.455Z,0
2017-05-11T00:50:43.746Z,0
2017-05-11T00:51:16.056Z,0
2017-05-11T00:51:48.355Z,0
2017-05-11T00:52:20.662Z,0
2017-05-11T00:52:52.956Z,0
2017-05-11T00:53:25.199Z,0
2017-05-11T00:53:57.458Z,0
2017-05-11T00:54:29.710Z,0
2017-05-11T00:55:01.952Z,0
2017-05-11T00:55:34.291Z,0
2017-05-11T00:56:06.548Z,0
2017-05-11T00:56:38.843Z,0
2017-05-11T00:57:11.090Z,0
2017-05-11T00:57:43.331Z,0
2017-05-11T00:58:15.587Z,0
2017-05-11T00:58:47.973Z,0
2017-05-11T00:59:20.219Z,0
2017-05-11T00:59:52.481Z,0
2017-05-11T01:00:24.715Z,0
2017-05-11T01:00:56.991Z,0
2017-05-11T01:01:29.258Z,0
2017-05-11T01:02:02.112Z,0
2017-05-11T01:02:34.389Z,0
2017-05-11T01:03:06.700Z,0
2017-05-11T01:03:38.979Z,0
2017-05-11T01:04:11.306Z,0
2017-05-11T01:04:43.606Z,0
2017-05-11T01:05:15.901Z,0
2017-05-11T01:05:48.204Z,0
2017-05-11T01:06:20.515Z,0
2017-05-11T01:06:52.792Z,0
2017-05-11T01:07:25.080Z,0
2017-05-11T01:07:57.375Z,0
2017-05-11T01:08:29.685Z,0
2017-05-11T01:09:01.977Z,0
2017-05-11T01:09:34.271Z,0
2017-05-11T01:10:06.568Z,0
2017-05-11T01:10:38.859Z,0
2017-05-11T01:11:11.145Z,0
2017-05-11T01:11:43.426Z,0
2017-05-11T01:12:15.723Z,0
2017-05-11T01:12:48.002Z,0
2017-05-11T01:13:20.301Z,0
2017-05-11T01:13:52.592Z,0
2017-05-11T01:14:24.889Z,0
2017-05-11T01:14:57.180Z,0
2017-05-11T01:15:29.470Z,0
2017-05-11T01:16:01.761Z,0
2017-05-11T01:16:34.052Z,0
2017-05-11T01:17:06.345Z,0
2017-05-11T01:17:38.642Z,0
2017-05-11T01:18:10.931Z,0
2017-05-11T01:18:43.213Z,0
2017-05-11T01:19:15.493Z,0
2017-05-11T01:19:47.791Z,0
2017-05-11T01:20:20.114Z,0
2017-05-11T01:20:52.405Z,0
2017-05-11T01:21:24.734Z,0
2017-05-11T01:21:57.030Z,0
2017-05-11T01:22:29.318Z,0
2017-05-11T01:23:01.609Z,0
2017-05-11T01:23:33.907Z,0
2017-05-11T01:24:06.203Z,0
2017-05-11T01:24:38.494Z,0
2017-05-11T01:25:10.785Z,0
2017-05-11T01:25:43.071Z,0
2017-05-11T01:26:15.368Z,0
2017-05-11T01:26:47.676Z,0
2017-05-11T01:27:19.965Z,0
2017-05-11T01:27:52.269Z,0
2017-05-11T01:28:24.565Z,0
2017-05-11T01:28:56.850Z,0
2017-05-11T01:29:29.141Z,0
2017-05-11T01:30:01.425Z,0
2017-05-11T01:30:33.734Z,0
2017-05-11T01:31:06.026Z,0
2017-05-11T01:31:38.322Z,0
2017-05-11T01:32:10.614Z,0
2017-05-11T01:32:42.890Z,0
2017-05-11T01:33:16.079Z,0
2017-05-11T01:33:48.334Z,0
2017-05-11T01:34:20.592Z,0
2017-05-11T01:34:52.835Z,0
2017-05-11T01:35:25.065Z,0
2017-05-11T01:35:58.173Z,0
2017-05-11T01:36:30.423Z,0
2017-05-11T01:37:02.677Z,0
2017-05-11T01:37:34.949Z,0
2017-05-11T01:38:07.222Z,0
2017-05-11T01:38:39.465Z,0
2017-05-11T01:39:11.715Z,0
2017-05-11T01:39:43.950Z,0
2017-05-11T01:40:16.177Z,0
2017-05-11T01:40:48.446Z,0
2017-05-11T01:41:20.682Z,0
2017-05-11T01:41:52.923Z,0
2017-05-11T01:42:25.784Z,0
2017-05-11T01:42:58.028Z,0
2017-05-11T01:43:30.269Z,0
2017-05-11T01:44:02.553Z,0
2017-05-11T01:44:34.847Z,0
2017-05-11T01:45:07.095Z,0
2017-05-11T01:45:39.365Z,0
2017-05-11T01:46:11.618Z,0
2017-05-11T01:46:43.883Z,0
2017-05-11T01:47:16.139Z,0
2017-05-11T01:47:48.410Z,0
2017-05-11T01:48:20.739Z,0
2017-05-11T01:48:53.001Z,0
2017-05-11T01:49:25.253Z,0
2017-05-11T01:49:57.486Z,0
2017-05-11T01:50:29.741Z,0
2017-05-11T01:51:02.728Z,0
2017-05-11T01:51:34.977Z,0
2017-05-11T01:52:07.224Z,0
2017-05-11T01:52:39.506Z,0
2017-05-11T01:53:11.813Z,0
2017-05-11T01:53:44.119Z,0
2017-05-11T01:54:16.408Z,0
2017-05-11T01:54:48.700Z,0
2017-05-11T01:55:20.987Z,0
2017-05-11T01:55:53.275Z,0
2017-05-11T01:56:25.558Z,0
2017-05-11T01:56:57.881Z,0
2017-05-11T01:57:30.228Z,0
2017-05-11T01:58:02.522Z,0
2017-05-11T01:58:34.872Z,0
2017-05-11T01:59:07.164Z,0
2017-05-11T01:59:39.444Z,0
2017-05-11T02:00:11.729Z,0
2017-05-11T02:00:44.037Z,0
2017-05-11T02:01:16.345Z,0
2017-05-11T02:01:48.628Z,0
2017-05-11T02:02:20.922Z,0
2017-05-11T02:02:53.181Z,0
2017-05-11T02:03:25.432Z,0
2017-05-11T02:03:57.685Z,0
2017-05-11T02:04:29.949Z,0
2017-05-11T02:05:02.797Z,0
2017-05-11T02:05:35.047Z,0
2017-05-11T02:06:07.290Z,0
2017-05-11T02:06:39.557Z,0
2017-05-11T02:07:11.810Z,0
2017-05-11T02:07:44.104Z,0
2017-05-11T02:08:16.363Z,0
2017-05-11T02:08:48.651Z,0
2017-05-11T02:09:20.922Z,0
2017-05-11T02:09:53.253Z,0
2017-05-11T02:10:25.517Z,0
2017-05-11T02:10:57.744Z,0
2017-05-11T02:11:29.990Z,0
2017-05-11T02:12:02.254Z,0
2017-05-11T02:12:34.520Z,0
2017-05-11T02:13:06.756Z,0
2017-05-11T02:13:39.010Z,0
2017-05-11T02:14:11.244Z,0
2017-05-11T02:14:43.518Z,0
2017-05-11T02:15:15.758Z,0
2017-05-11T02:15:48.066Z,0
2017-05-11T02:16:20.347Z,0
2017-05-11T02:16:52.600Z,0
2017-05-11T02:17:25.651Z,0
2017-05-11T02:17:57.921Z,0
2017-05-11T02:18:30.265Z,0
2017-05-11T02:19:02.553Z,0
2017-05-11T02:19:34.809Z,0
2017-05-11T02:20:07.090Z,0
2017-05-11T02:20:40.277Z,0
2017-05-11T02:21:12.555Z,0
2017-05-11T02:21:44.798Z,0
2017-05-11T02:22:17.057Z,0
2017-05-11T02:22:49.300Z,0
2017-05-11T02:23:21.553Z,0
2017-05-11T02:23:53.802Z,0
2017-05-11T02:24:26.063Z,0
2017-05-11T02:24:58.340Z,0
2017-05-11T02:25:30.604Z,0
2017-05-11T02:26:02.893Z,0
2017-05-11T02:26:35.169Z,0
2017-05-11T02:27:07.430Z,0
2017-05-11T02:27:39.678Z,0
2017-05-11T02:28:11.941Z,0
2017-05-11T02:28:44.297Z,0
2017-05-11T02:29:16.565Z,0
2017-05-11T02:29:48.816Z,0
2017-05-11T02:30:21.061Z,0
2017-05-11T02:30:54.165Z,0
2017-05-11T02:31:26.402Z,0
2017-05-11T02:31:58.651Z,0
2017-05-11T02:32:31.733Z,0
2017-05-11T02:33:04.011Z,0
2017-05-11T02:33:36.303Z,0
2017-05-11T02:34:08.620Z,0
2017-05-11T02:34:40.925Z,0
2017-05-11T02:35:13.239Z,0
2017-05-11T02:35:45.525Z,0
2017-05-11T02:36:17.811Z,0
2017-05-11T02:36:50.114Z,0
2017-05-11T02:37:22.408Z,0
2017-05-11T02:37:54.695Z,0
2017-05-11T02:38:26.988Z,0
2017-05-11T02:38:59.276Z,0
2017-05-11T02:39:31.544Z,0
2017-05-11T02:40:03.847Z,0
2017-05-11T02:40:36.144Z,0
2017-05-11T02:41:08.445Z,0
2017-05-11T02:41:40.748Z,0
2017-05-11T02:42:13.025Z,0
2017-05-11T02:42:45.326Z,0
2017-05-11T02:43:17.625Z,0
2017-05-11T02:43:49.922Z,0
2017-05-11T02:44:22.238Z,0
2017-05-11T02:44:54.541Z,0
2017-05-11T02:45:26.841Z,0
2017-05-11T02:45:59.148Z,0
2017-05-11T02:46:31.445Z,0
2017-05-11T02:47:03.775Z,0
2017-05-11T02:47:36.085Z,0
2017-05-11T02:48:08.381Z,0
2017-05-11T02:48:40.677Z,0
2017-05-11T02:49:12.973Z,0
2017-05-11T02:49:45.270Z,0
2017-05-11T02:50:17.557Z,0
2017-05-11T02:50:49.848Z,0
2017-05-11T02:51:22.142Z,0
2017-05-11T02:51:54.442Z,0
2017-05-11T02:52:26.768Z,0
2017-05-11T02:52:59.063Z,0
2017-05-11T02:53:31.374Z,0
2017-05-11T02:54:03.672Z,0
2017-05-11T02:54:35.962Z,0
2017-05-11T02:55:08.246Z,0
2017-05-11T02:55:40.552Z,0
2017-05-11T02:56:12.845Z,0
2017-05-11T02:56:45.137Z,0
2017-05-11T02:57:17.433Z,0
2017-05-11T02:57:49.735Z,0
2017-05-11T02:58:22.030Z,0
2017-05-11T02:58:54.375Z,0
2017-05-11T02:59:26.659Z,0
2017-05-11T02:59:58.948Z,0
2017-05-11T03:00:31.248Z,0
2017-05-11T03:01:03.539Z,0
2017-05-11T03:01:35.857Z,0
2017-05-11T03:02:08.147Z,0
2017-05-11T03:02:40.426Z,0
2017-05-11T03:03:13.255Z,0
2017-05-11T03:03:45.543Z,0
2017-05-11T03:04:17.823Z,0
2017-05-11T03:04:50.631Z,0
2017-05-11T03:05:22.875Z,0
2017-05-11T03:05:55.171Z,0
2017-05-11T03:06:27.449Z,0
2017-05-11T03:06:59.805Z,0
2017-05-11T03:07:32.046Z,0
2017-05-11T03:08:04.301Z,0
2017-05-11T03:08:36.578Z,0
2017-05-11T03:09:08.822Z,0
2017-05-11T03:09:41.075Z,0
2017-05-11T03:10:14.833Z,0
2017-05-11T03:10:47.083Z,0
2017-05-11T03:11:19.337Z,0
2017-05-11T03:11:51.597Z,4
2017-05-11T03:12:24.831Z,4
2017-05-11T03:12:57.108Z,4
2017-05-11T03:13:29.403Z,4
2017-05-11T03:14:01.705Z,4
2017-05-11T03:14:34.004Z,4
2017-05-11T03:15:06.287Z,0
2017-05-11T03:15:38.589Z,4
2017-05-11T03:16:10.884Z,4
2017-05-11T03:16:43.183Z,4
2017-05-11T03:17:15.480Z,4
2017-05-11T03:17:47.789Z,4
2017-05-11T03:18:20.095Z,8
2017-05-11T03:18:52.392Z,8
2017-05-11T03:19:24.691Z,4
2017-05-11T03:19:56.983Z,4
2017-05-11T03:20:29.269Z,8
2017-05-11T03:21:01.582Z,8
2017-05-11T03:21:33.880Z,8
2017-05-11T03:22:06.172Z,8
2017-05-11T03:22:38.470Z,8
2017-05-11T03:23:10.772Z,12
2017-05-11T03:23:43.094Z,12
2017-05-11T03:24:15.385Z,8
2017-05-11T03:24:47.699Z,12
2017-05-11T03:25:19.992Z,12
2017-05-11T03:25:52.252Z,16
2017-05-11T03:26:24.538Z,12
2017-05-11T03:26:56.831Z,16
2017-05-11T03:27:29.127Z,20
2017-05-11T03:28:01.429Z,16
2017-05-11T03:28:33.723Z,20
2017-05-11T03:29:06.023Z,20
2017-05-11T03:29:38.327Z,20
2017-05-11T03:30:10.621Z,24
2017-05-11T03:30:42.904Z,24
2017-05-11T03:31:15.205Z,24
2017-05-11T03:31:47.499Z,28
2017-05-11T03:32:19.790Z,28
2017-05-11T03:32:52.084Z,32
2017-05-11T03:33:24.371Z,28
2017-05-11T03:33:56.663Z,32
2017-05-11T03:34:28.946Z,32
2017-05-11T03:35:01.260Z,36
2017-05-11T03:35:33.536Z,36
2017-05-11T03:36:05.817Z,40
2017-05-11T03:36:38.109Z,40
2017-05-11T03:37:10.402Z,44
2017-05-11T03:37:42.746Z,44
2017-05-11T03:38:15.037Z,48
2017-05-11T03:38:47.337Z,48
2017-05-11T03:39:19.643Z,52
2017-05-11T03:39:51.943Z,56
2017-05-11T03:40:26.764Z,56
2017-05-11T03:40:59.054Z,56
2017-05-11T03:41:31.337Z,60
2017-05-11T03:42:03.638Z,64
2017-05-11T03:42:36.030Z,64
2017-05-11T03:43:08.328Z,68
2017-05-11T03:43:40.590Z,68
2017-05-11T03:44:13.721Z,76
2017-05-11T03:44:45.977Z,76
2017-05-11T03:45:18.222Z,80
2017-05-11T03:45:50.535Z,84
2017-05-11T03:46:22.786Z,84
2017-05-11T03:46:55.029Z,88
2017-05-11T03:47:27.284Z,92
2017-05-11T03:47:59.531Z,92
2017-05-11T03:48:31.795Z,96
2017-05-11T03:49:04.072Z,104
2017-05-11T03:49:36.309Z,104
2017-05-11T03:50:08.558Z,108
2017-05-11T03:50:40.813Z,112
2017-05-11T03:51:13.061Z,116
2017-05-11T03:51:45.317Z,120
2017-05-11T03:52:17.614Z,124
2017-05-11T03:52:49.884Z,128
2017-05-11T03:53:22.186Z,132
2017-05-11T03:53:54.477Z,136
2017-05-11T03:54:26.776Z,136
2017-05-11T03:54:59.070Z,140
2017-05-11T03:55:31.367Z,144
2017-05-11T03:56:03.662Z,152
2017-05-11T03:56:35.949Z,156
2017-05-11T03:57:08.253Z,156
2017-05-11T03:57:40.559Z,164
2017-05-11T03:58:12.879Z,168
2017-05-11T03:58:45.170Z,172
2017-05-11T03:59:17.465Z,176
2017-05-11T03:59:49.770Z,184
2017-05-11T04:00:22.059Z,188
2017-05-11T04:00:54.350Z,196
2017-05-11T04:01:26.650Z,196
2017-05-11T04:01:58.951Z,204
2017-05-11T04:02:31.256Z,208
2017-05-11T04:03:03.512Z,216
2017-05-11T04:03:35.836Z,220
2017-05-11T04:04:08.083Z,224
2017-05-11T04:04:40.340Z,228
2017-05-11T04:05:12.594Z,236
2017-05-11T04:05:45.740Z,244
2017-05-11T04:06:18.870Z,248
2017-05-11T04:06:51.113Z,252
2017-05-11T04:07:23.390Z,260
2017-05-11T04:07:55.637Z,264
2017-05-11T04:08:27.913Z,272
2017-05-11T04:09:00.170Z,280
2017-05-11T04:09:32.431Z,284
2017-05-11T04:10:04.658Z,296
2017-05-11T04:10:36.909Z,304
2017-05-11T04:11:09.258Z,312
2017-05-11T04:11:41.506Z,316
2017-05-11T04:12:13.754Z,324
2017-05-11T04:12:46.026Z,336
2017-05-11T04:13:18.343Z,348
2017-05-11T04:13:50.630Z,356
2017-05-11T04:14:22.939Z,368
2017-05-11T04:14:55.224Z,376
2017-05-11T04:15:27.510Z,388
2017-05-11T04:15:59.808Z,400
2017-05-11T04:16:32.090Z,412
2017-05-11T04:17:04.372Z,424
2017-05-11T04:17:36.664Z,432
2017-05-11T04:18:08.951Z,444
2017-05-11T04:18:41.244Z,452
2017-05-11T04:19:13.535Z,460
2017-05-11T04:19:45.849Z,468
2017-05-11T04:20:18.145Z,476
2017-05-11T04:20:50.446Z,484
2017-05-11T04:21:22.734Z,496
2017-05-11T04:21:55.022Z,504
2017-05-11T04:22:27.331Z,512
2017-05-11T04:22:59.619Z,520
2017-05-11T04:23:31.915Z,532
2017-05-11T04:24:04.219Z,540
2017-05-11T04:24:36.523Z,552
2017-05-11T04:25:08.822Z,560
2017-05-11T04:25:41.117Z,568
2017-05-11T04:26:13.406Z,576
2017-05-11T04:26:45.698Z,588
2017-05-11T04:27:17.995Z,596
2017-05-11T04:27:50.290Z,608
2017-05-11T04:28:22.583Z,616
2017-05-11T04:28:54.882Z,620
2017-05-11T04:29:27.198Z,632
2017-05-11T04:29:59.497Z,640
2017-05-11T04:30:31.782Z,644
2017-05-11T04:31:04.072Z,656
2017-05-11T04:31:36.360Z,664
2017-05-11T04:32:08.645Z,680
2017-05-11T04:32:40.940Z,700
2017-05-11T04:33:13.199Z,716
2017-05-11T04:33:45.452Z,732
2017-05-11T04:34:17.719Z,740
2017-05-11T04:34:49.973Z,760
2017-05-11T04:35:22.331Z,776
2017-05-11T04:35:55.329Z,800
2017-05-11T04:36:27.571Z,816
2017-05-11T04:36:59.841Z,832
2017-05-11T04:37:32.813Z,848
2017-05-11T04:38:05.712Z,864
2017-05-11T04:38:37.972Z,880
2017-05-11T04:39:10.213Z,892
2017-05-11T04:39:42.452Z,900
2017-05-11T04:40:14.695Z,916
2017-05-11T04:40:46.946Z,932
2017-05-11T04:41:19.271Z,948
2017-05-11T04:41:51.528Z,960
2017-05-11T04:42:23.808Z,980
2017-05-11T04:42:56.764Z,996
2017-05-11T04:43:29.051Z,1016
2017-05-11T04:44:01.342Z,1028
2017-05-11T04:44:33.598Z,1048
2017-05-11T04:45:05.861Z,1068
2017-05-11T04:45:38.104Z,1088
2017-05-11T04:46:10.405Z,1104
2017-05-11T04:46:42.678Z,1120
2017-05-11T04:47:14.926Z,1140
2017-05-11T04:47:47.206Z,1152
2017-05-11T04:48:19.457Z,1176
2017-05-11T04:48:52.325Z,1200
2017-05-11T04:49:24.582Z,1220
2017-05-11T04:49:56.850Z,1240
2017-05-11T04:50:29.103Z,1256
2017-05-11T04:51:01.821Z,1276
2017-05-11T04:51:34.095Z,1292
2017-05-11T04:52:06.886Z,1312
2017-05-11T04:52:39.169Z,1328
2017-05-11T04:53:11.459Z,1344
2017-05-11T04:53:43.770Z,1364
2017-05-11T04:54:16.099Z,1372
2017-05-11T04:54:48.398Z,1388
2017-05-11T04:55:20.685Z,1408
2017-05-11T04:55:52.969Z,1424
2017-05-11T04:56:25.233Z,1444
2017-05-11T04:56:57.530Z,1460
2017-05-11T04:57:29.819Z,1476
2017-05-11T04:58:02.112Z,1496
2017-05-11T04:58:34.412Z,1520
2017-05-11T04:59:06.686Z,1540
2017-05-11T04:59:38.966Z,1556
2017-05-11T05:00:11.254Z,1576
2017-05-11T05:00:43.555Z,1588
2017-05-11T05:01:15.849Z,1608
2017-05-11T05:01:48.146Z,1616
2017-05-11T05:02:20.444Z,1636
2017-05-11T05:02:52.702Z,1648
2017-05-11T05:03:24.988Z,1660
2017-05-11T05:03:57.242Z,1684
2017-05-11T05:04:29.477Z,1696
2017-05-11T05:05:01.718Z,1712
2017-05-11T05:05:33.970Z,1736
2017-05-11T05:06:06.232Z,1752
2017-05-11T05:06:38.492Z,1768
2017-05-11T05:07:10.767Z,1788
2017-05-11T05:07:43.011Z,1808
2017-05-11T05:08:15.258Z,1832
2017-05-11T05:08:47.526Z,1848
2017-05-11T05:09:21.343Z,1868
2017-05-11T05:09:53.591Z,1892
2017-05-11T05:10:25.833Z,1912
2017-05-11T05:10:58.080Z,1924
2017-05-11T05:11:30.344Z,1944
2017-05-11T05:12:03.338Z,1952
2017-05-11T05:12:36.851Z,1964
2017-05-11T05:13:09.130Z,1988
2017-05-11T05:13:41.372Z,2004
2017-05-11T05:14:13.630Z,2024
2017-05-11T05:14:45.877Z,2040
2017-05-11T05:15:18.143Z,2060
2017-05-11T05:15:50.390Z,2080
2017-05-11T05:16:22.634Z,2096
2017-05-11T05:16:54.892Z,2116
2017-05-11T05:17:27.172Z,2132
2017-05-11T05:17:59.561Z,2148
2017-05-11T05:18:31.825Z,2160
2017-05-11T05:19:04.697Z,2172
2017-05-11T05:19:36.943Z,2188
2017-05-11T05:20:09.197Z,2200
2017-05-11T05:20:41.444Z,2220
2017-05-11T05:21:13.688Z,2236
2017-05-11T05:21:46.785Z,2248
2017-05-11T05:22:19.075Z,2268
2017-05-11T05:22:51.340Z,2288
2017-05-11T05:23:23.636Z,2304
2017-05-11T05:23:55.934Z,2320
2017-05-11T05:24:28.235Z,2332
2017-05-11T05:25:00.532Z,2348
2017-05-11T05:25:32.807Z,2360
2017-05-11T05:26:05.103Z,2380
2017-05-11T05:26:37.401Z,2388
2017-05-11T05:27:09.719Z,2400
2017-05-11T05:27:42.006Z,2416
2017-05-11T05:28:14.306Z,2428
2017-05-11T05:28:46.579Z,2436
2017-05-11T05:29:18.867Z,2456
2017-05-11T05:29:51.166Z,2456
2017-05-11T05:30:23.453Z,2476
2017-05-11T05:30:55.731Z,2488
2017-05-11T05:31:28.016Z,2496
2017-05-11T05:32:00.309Z,2512
2017-05-11T05:32:32.587Z,2524
2017-05-11T05:33:04.853Z,2528
2017-05-11T05:33:37.109Z,2544
2017-05-11T05:34:09.359Z,2556
2017-05-11T05:34:41.639Z,2568
2017-05-11T05:35:14.038Z,2588
2017-05-11T05:35:46.302Z,2592
2017-05-11T05:36:18.554Z,2604
2017-05-11T05:36:50.796Z,2620
2017-05-11T05:37:23.078Z,2632
2017-05-11T05:37:56.859Z,2644
2017-05-11T05:38:29.151Z,2660
2017-05-11T05:39:01.405Z,2680
2017-05-11T05:39:33.684Z,2692
2017-05-11T05:40:05.965Z,2716
2017-05-11T05:40:38.730Z,2736
2017-05-11T05:41:10.998Z,2748
2017-05-11T05:41:43.245Z,2764
2017-05-11T05:42:15.509Z,2780
2017-05-11T05:42:47.810Z,2792
2017-05-11T05:43:20.104Z,2808
2017-05-11T05:43:52.387Z,2828
2017-05-11T05:44:24.736Z,2832
2017-05-11T05:44:57.042Z,2848
2017-05-11T05:45:29.340Z,2856
2017-05-11T05:46:01.633Z,2868
2017-05-11T05:46:33.916Z,2884
2017-05-11T05:47:06.194Z,2896
2017-05-11T05:47:38.474Z,2912
2017-05-11T05:48:10.746Z,2920
2017-05-11T05:48:43.036Z,2932
2017-05-11T05:49:15.339Z,2948
2017-05-11T05:49:47.644Z,2964
2017-05-11T05:50:19.932Z,2976
2017-05-11T05:50:52.215Z,2988
2017-05-11T05:51:24.509Z,3000
2017-05-11T05:51:56.800Z,3020
2017-05-11T05:52:29.105Z,3032
2017-05-11T05:53:01.392Z,3048
2017-05-11T05:53:33.696Z,3060
2017-05-11T05:54:05.988Z,3068
2017-05-11T05:54:38.315Z,3084
2017-05-11T05:55:10.609Z,3104
2017-05-11T05:55:42.907Z,3108
2017-05-11T05:56:15.193Z,3120
2017-05-11T05:56:47.496Z,3132
2017-05-11T05:57:19.790Z,3144
2017-05-11T05:57:52.066Z,3156
2017-05-11T05:58:24.360Z,3164
2017-05-11T05:58:56.663Z,3172
2017-05-11T06:00:48.468Z,3220
2017-05-11T06:01:20.742Z,3236
2017-05-11T06:01:53.045Z,3244
2017-05-11T06:02:25.338Z,3256
2017-05-11T06:02:57.636Z,3268
2017-05-11T06:03:29.936Z,3280
2017-05-11T06:04:02.215Z,3296
2017-05-11T06:04:34.513Z,3308
2017-05-11T06:05:06.812Z,3324
2017-05-11T06:05:39.098Z,3340
2017-05-11T06:06:11.384Z,3352
2017-05-11T06:06:43.676Z,3368
2017-05-11T06:07:15.965Z,3372
2017-05-11T06:07:48.250Z,3384
2017-05-11T06:08:20.548Z,3400
2017-05-11T06:08:52.842Z,3408
2017-05-11T06:09:25.142Z,3420
2017-05-11T06:09:57.443Z,3428
2017-05-11T06:10:29.735Z,3436
2017-05-11T06:11:02.033Z,3448
2017-05-11T06:11:34.308Z,3456
2017-05-11T06:12:06.600Z,3464
2017-05-11T06:12:38.985Z,3472
2017-05-11T06:13:12.404Z,3492
2017-05-11T06:13:45.316Z,3500
2017-05-11T06:14:17.587Z,3516
2017-05-11T06:14:49.846Z,3528
2017-05-11T06:15:22.112Z,3536
2017-05-11T06:15:54.383Z,3548
2017-05-11T06:16:27.494Z,3564
2017-05-11T06:17:00.366Z,3572
2017-05-11T06:17:32.622Z,3576
2017-05-11T06:18:05.391Z,3580
2017-05-11T06:18:38.888Z,3604
2017-05-11T06:19:11.161Z,3608
2017-05-11T06:19:43.415Z,3624
2017-05-11T06:20:17.007Z,3640
2017-05-11T06:20:50.407Z,3652
2017-05-11T06:21:23.384Z,3664
2017-05-11T06:21:55.659Z,3680
2017-05-11T06:22:28.815Z,3684
2017-05-11T06:23:01.119Z,3692
2017-05-11T06:23:33.385Z,3696
2017-05-11T06:24:05.658Z,3712
2017-05-11T06:24:37.947Z,3724
2017-05-11T06:25:10.235Z,3740
2017-05-11T06:25:42.515Z,3748
2017-05-11T06:26:14.803Z,3760
2017-05-11T06:26:47.090Z,3764
2017-05-11T06:27:19.390Z,3772
2017-05-11T06:27:51.665Z,3780
2017-05-11T06:28:23.982Z,3788
2017-05-11T06:28:56.303Z,3796
2017-05-11T06:29:28.631Z,3808
2017-05-11T06:30:00.940Z,3816
2017-05-11T06:30:33.224Z,3828
2017-05-11T06:31:06.268Z,3832
2017-05-11T06:31:38.554Z,3840
2017-05-11T06:32:10.847Z,3848
2017-05-11T06:32:43.144Z,3864
2017-05-11T06:33:15.440Z,3872
2017-05-11T06:33:47.822Z,3884
2017-05-11T06:34:20.106Z,3896
2017-05-11T06:34:52.385Z,3904
2017-05-11T06:35:24.681Z,3912
2017-05-11T06:35:56.981Z,3912
2017-05-11T06:36:29.261Z,3916
2017-05-11T06:37:01.544Z,3920
2017-05-11T06:37:35.301Z,3932
2017-05-11T06:38:07.604Z,3936
2017-05-11T06:38:39.902Z,3952
2017-05-11T06:39:12.206Z,3956
2017-05-11T06:39:44.533Z,3964
2017-05-11T06:40:18.661Z,3976
2017-05-11T06:42:10.536Z,3992
2017-05-11T06:42:42.817Z,3996
2017-05-11T06:43:15.113Z,4008
2017-05-11T06:43:47.399Z,4016
2017-05-11T06:44:19.696Z,4024
2017-05-11T06:46:11.419Z,4036
2017-05-11T06:46:43.720Z,4040
